Latest Weather Observations for Mardie

IDW60801

Issued at 6:32 pm WST Sunday 1 March 2015 (issued every 30 minutes, with the page automatically refreshed every 10 minutes)

About weather observations | Map of weather stations | Latest weather observations for WA | Other Formats
Station Details ID: 005008 Name: MARDIE Lat: -21.19 Lon: 115.98 Height: 11.0 m
Data from the previous 72 hours. | See also: Recent months at Mardie
Date/Time
WST
Temp
°C
App
Temp
°C
Dew
Point
Rel
Hum
%
Delta-T
°C
Wind Press
QNH
hPa
Press
MSL
hPa
Rain
since 9 am
mm
Dir
 
Spd
km/h
Gust
km/h
Spd
kts
Gust
kts
01/06:30pm 29.3 30.2 22.0 64 4.9 WNW 20 28 11 15 1005.6 1005.5 0.0
01/06:00pm 29.5 30.0 22.0 64 5.1 WNW 22 33 12 18 1005.3 1005.2 0.0
01/05:30pm 30.0 30.1 21.1 59 5.9 WNW 22 32 12 17 1005.0 1004.9 0.0
01/05:00pm 30.5 30.6 21.9 60 5.8 WNW 24 35 13 19 1005.0 1004.9 0.0
01/04:30pm 31.2 31.5 22.2 58 6.1 WNW 24 37 13 20 1005.1 1005.0 0.0
01/04:00pm 31.3 31.6 22.3 58 6.1 WNW 24 33 13 18 1004.9 1004.8 0.0
01/03:30pm 31.5 32.0 21.9 56 6.5 W 22 35 12 19 1005.2 1005.1 0.0
01/03:00pm 31.8 32.0 21.3 53 7.1 WNW 22 33 12 18 1005.4 1005.3 0.0
01/02:30pm 32.0 32.4 21.8 54 6.9 WNW 22 32 12 17 1005.6 1005.5 0.0
01/02:00pm 32.5 33.8 21.7 53 7.3 WNW 17 28 9 15 1006.1 1006.0 0.0
01/01:30pm 32.2 33.2 21.7 54 7.1 WNW 19 30 10 16 1006.4 1006.3 0.0
01/01:00pm 32.6 33.5 21.5 52 7.5 WNW 19 32 10 17 1006.8 1006.7 0.0
01/12:30pm 31.1 31.9 20.7 54 6.9 W 17 28 9 15 1007.1 1007.0 0.0
01/12:00pm 31.6 32.1 21.2 54 7.0 WNW 20 30 11 16 1007.5 1007.4 0.0
01/11:30am 31.5 31.7 21.4 55 6.8 W 22 35 12 19 1007.5 1007.4 0.0
01/11:00am 31.1 31.7 21.0 55 6.8 W 19 24 10 13 1007.8 1007.7 0.0
01/10:30am 30.6 31.5 20.8 56 6.5 W 17 24 9 13 1008.0 1007.9 0.0
01/10:00am 30.2 31.1 21.6 60 5.8 W 19 24 10 13 1008.2 1008.1 0.0
01/09:30am 30.0 31.2 22.2 63 5.3 WNW 19 24 10 13 1008.4 1008.3 0.0
01/09:00am 29.3 30.8 22.0 64 4.9 WNW 17 26 9 14 1008.3 1008.2 0.0
01/08:30am 29.1 30.8 22.3 66 4.6 WNW 17 22 9 12 1008.0 1007.9 0.0
01/08:00am 29.1 31.7 22.6 68 4.4 WNW 13 22 7 12 1007.8 1007.7 0.0
01/07:30am 28.3 31.5 23.0 73 3.6 WNW 11 15 6 8 1007.5 1007.4 0.0
01/07:00am 27.7 31.5 23.5 78 2.9 NW 9 15 5 8 1007.4 1007.3 0.0
01/06:30am 27.3 30.7 23.3 79 2.7 WNW 11 15 6 8 1007.1 1007.0 0.0
01/06:00am 27.3 30.3 23.3 79 2.7 WNW 13 17 7 9 1006.6 1006.5 0.0
01/05:30am 27.2 31.3 23.9 82 2.3 NW 9 13 5 7 1006.3 1006.2 0.0
01/05:00am 26.4 31.5 22.7 80 2.5 CALM 0 6 0 3 1006.1 1006.0 0.0
01/04:30am 26.8 31.7 23.1 80 2.5 NW 2 4 1 2 1006.0 1005.9 0.0
01/04:00am 27.0 31.7 23.3 80 2.5 NW 4 6 2 3 1005.8 1005.7 0.0
01/03:30am 27.2 31.9 23.4 80 2.6 NW 4 6 2 3 1005.6 1005.5 0.0
01/03:00am 27.4 31.9 23.6 80 2.6 NW 6 9 3 5 1005.6 1005.5 0.0
01/02:30am 27.5 31.5 23.7 80 2.6 WNW 9 13 5 7 1005.4 1005.3 0.0
01/02:00am 27.6 31.9 23.6 79 2.8 WNW 7 11 4 6 1005.8 1005.7 0.0
01/01:30am 27.8 31.7 23.6 78 2.9 WNW 9 11 5 6 1006.2 1006.1 0.0
01/01:00am 27.9 31.7 23.5 77 3.0 W 9 15 5 8 1006.3 1006.2 0.0
01/12:30am 28.1 31.2 22.8 73 3.6 W 11 15 6 8 1006.6 1006.5 0.0
01/12:00am 28.0 30.9 22.5 72 3.7 WNW 11 15 6 8 1006.7 1006.6 0.0
 
Date/Time
WST
Temp
°C
App
Temp
°C
Dew
Point
Rel
Hum
%
Delta-T
°C
Wind Press
QNH
hPa
Press
MSL
hPa
Rain
since 9 am
mm
Dir
 
Spd
km/h
Gust
km/h
Spd
kts
Gust
kts
28/11:30pm 28.0 30.9 23.2 75 3.3 W 13 20 7 11 1006.9 1006.8 0.0
28/11:00pm 28.1 30.3 23.2 74 3.4 W 17 24 9 13 1007.5 1007.4 0.0
28/10:30pm 28.1 29.8 23.0 74 3.5 W 19 26 10 14 1007.6 1007.5 0.0
28/10:00pm 28.2 30.7 23.1 74 3.5 W 15 20 8 11 1007.7 1007.6 0.0
28/09:30pm 28.3 30.8 23.2 74 3.5 W 15 22 8 12 1007.8 1007.7 0.0
28/09:00pm 28.3 30.0 23.0 73 3.6 W 19 28 10 15 1007.7 1007.6 0.0
28/08:30pm 28.4 30.2 23.3 74 3.5 W 19 28 10 15 1007.2 1007.1 0.0
28/08:00pm 28.5 30.3 23.6 75 3.4 WNW 20 28 11 15 1006.8 1006.7 0.0
28/07:30pm 28.4 29.8 23.5 75 3.4 WNW 22 32 12 17 1006.1 1006.0 0.0
28/07:00pm 28.6 30.5 23.7 75 3.4 WNW 20 32 11 17 1005.6 1005.5 0.0
28/06:30pm 28.8 29.4 23.5 73 3.6 WNW 26 35 14 19 1005.0 1004.9 0.0
28/06:00pm 29.4 30.3 23.4 70 4.1 WNW 24 35 13 19 1004.8 1004.7 0.0
28/05:30pm 29.9 30.3 23.1 67 4.7 NW 26 39 14 21 1004.4 1004.3 0.0
28/05:00pm 31.0 31.3 22.9 62 5.6 NW 26 35 14 19 1004.3 1004.2 0.0
28/04:30pm 31.0 30.6 22.3 60 5.9 NW 28 41 15 22 1004.3 1004.2 0.0
28/04:00pm 31.4 30.9 22.1 57 6.3 NW 28 39 15 21 1004.5 1004.4 0.0
28/03:30pm 31.4 30.8 22.7 60 6.0 NW 30 39 16 21 1004.8 1004.7 0.0
28/03:00pm 32.3 32.5 23.5 59 6.1 NW 28 39 15 21 1004.9 1004.8 0.0
28/02:30pm 32.5 32.2 23.2 58 6.4 NW 30 41 16 22 1005.2 1005.1 0.0
28/02:00pm 33.0 33.5 22.7 54 7.1 NW 24 35 13 19 1005.4 1005.3 0.0
28/01:30pm 32.6 33.4 22.4 55 7.0 NW 22 41 12 22 1005.5 1005.4 0.0
28/01:00pm 32.5 33.2 22.9 57 6.6 WNW 24 37 13 20 1005.8 1005.7 0.0
28/12:30pm 33.9 34.3 21.7 49 8.3 NW 22 32 12 17 1006.1 1006.0 0.0
28/12:00pm 33.5 34.1 21.0 48 8.4 NW 19 28 10 15 1006.4 1006.3 0.0
28/11:30am 34.2 35.0 20.6 45 9.1 NW 17 26 9 14 1006.5 1006.4 0.0
28/11:00am 34.2 36.1 19.8 42 9.6 NW 9 15 5 8 1006.8 1006.7 0.0
28/10:30am 33.8 35.8 19.1 42 9.7 WNW 7 17 4 9 1007.0 1006.9 0.0
28/10:00am 33.4 35.4 18.7 41 9.6 NNW 6 9 3 5 1007.3 1007.2 0.0
28/09:30am 32.6 35.0 18.8 44 9.0 SSW 4 7 2 4 1007.6 1007.5 0.0
28/09:00am 31.8 34.5 18.7 45 8.5 WSW 2 6 1 3 1007.5 1007.4 0.0
28/08:30am 30.5 32.8 18.6 49 7.7 WSW 4 6 2 3 1007.4 1007.3 0.0
28/08:00am 29.6 31.6 18.7 52 7.0 WSW 6 9 3 5 1007.3 1007.2 0.0
28/07:30am 28.7 29.8 18.8 55 6.4 SW 11 13 6 7 1007.2 1007.1 0.0
28/07:00am 28.1 29.4 19.3 58 5.7 SW 11 17 6 9 1006.8 1006.7 0.0
28/06:30am 27.2 28.7 19.0 61 5.3 WSW 9 13 5 7 1006.5 1006.4 0.0
28/06:00am 27.2 28.6 19.5 62 5.0 WSW 11 15 6 8 1006.2 1006.1 0.0
28/05:30am 27.2 29.2 20.0 64 4.7 WSW 9 11 5 6 1006.2 1006.1 0.0
28/05:00am 27.4 29.5 20.2 65 4.7 WSW 9 13 5 7 1006.0 1005.9 0.0
28/04:30am 27.5 29.8 20.6 66 4.5 WSW 9 11 5 6 1005.8 1005.7 0.0
28/04:00am 27.7 29.7 20.8 66 4.6 WSW 11 15 6 8 1005.8 1005.7 0.0
28/03:30am 27.8 29.7 20.6 65 4.7 WSW 11 15 6 8 1005.8 1005.7 0.0
28/03:00am 27.9 30.0 21.0 66 4.6 WSW 11 15 6 8 1005.6 1005.5 0.0
28/02:30am 28.1 30.6 21.1 65 4.7 WSW 9 13 5 7 1005.9 1005.8 0.0
28/02:00am 28.2 30.2 21.5 67 4.5 WSW 13 15 7 8 1005.7 1005.6 0.0
28/01:30am 28.6 31.6 22.6 70 4.1 WSW 11 15 6 8 1005.8 1005.7 0.0
28/01:00am 28.8 31.7 22.5 68 4.3 W 11 15 6 8 1006.2 1006.1 0.0
28/12:30am 29.0 32.7 23.2 71 4.0 W 9 13 5 7 1006.5 1006.4 0.0
28/12:00am 29.1 32.2 22.8 69 4.3 W 11 15 6 8 1006.8 1006.7 0.0
 
Date/Time
WST
Temp
°C
App
Temp
°C
Dew
Point
Rel
Hum
%
Delta-T
°C
Wind Press
QNH
hPa
Press
MSL
hPa
Rain
since 9 am
mm
Dir
 
Spd
km/h
Gust
km/h
Spd
kts
Gust
kts
27/11:30pm 29.1 32.9 22.8 69 4.3 W 7 11 4 6 1007.0 1006.9 0.0
27/11:00pm 29.2 32.8 22.4 66 4.6 W 7 9 4 5 1007.1 1007.0 0.0
27/10:30pm 29.5 33.5 22.7 67 4.6 W 6 7 3 4 1007.2 1007.1 0.0
27/10:00pm 29.5 33.4 23.0 68 4.5 W 7 11 4 6 1007.1 1007.0 0.0
27/09:30pm 29.6 32.5 23.1 68 4.5 WSW 13 17 7 9 1006.9 1006.8 0.0
27/09:00pm 29.4 31.9 23.1 69 4.3 W 15 22 8 12 1006.6 1006.5 0.0
27/08:30pm 29.4 31.7 23.4 70 4.1 W 17 24 9 13 1006.2 1006.1 0.0
27/08:00pm 29.5 31.4 23.7 71 4.0 W 20 28 11 15 1005.6 1005.5 0.0
27/07:30pm 29.8 31.7 23.7 70 4.2 W 20 28 11 15 1005.1 1005.0 0.0
27/07:00pm 30.0 31.1 22.4 63 5.2 W 20 28 11 15 1004.7 1004.6 0.0
27/06:30pm 30.3 31.6 22.7 64 5.2 W 20 28 11 15 1004.4 1004.3 0.0
27/06:00pm 30.7 31.1 21.8 59 6.0 W 22 33 12 18 1004.3 1004.2 0.0
27/05:30pm 31.6 30.5 20.2 50 7.6 WNW 26 35 14 19 1003.9 1003.8 0.0
27/05:00pm 31.3 30.3 21.2 55 6.8 WNW 28 35 15 19 1003.7 1003.6 0.0
27/04:30pm 32.4 31.3 21.0 51 7.7 W 28 35 15 19 1003.5 1003.4 0.0
27/04:00pm 32.3 32.4 21.8 54 7.1 WNW 24 30 13 16 1003.6 1003.5 0.0
27/03:30pm 32.0 32.4 21.8 54 6.9 WNW 22 32 12 17 1003.9 1003.8 0.0
27/03:00pm 32.1 32.8 22.2 56 6.8 WNW 22 28 12 15 1004.5 1004.4 0.0
27/02:30pm 32.6 32.9 21.5 52 7.5 WNW 22 28 12 15 1004.8 1004.7 0.0
27/02:00pm 32.5 32.4 20.7 49 7.9 WNW 22 30 12 16 1005.0 1004.9 0.0
27/01:30pm 32.8 33.1 20.3 47 8.3 WNW 19 28 10 15 1005.2 1005.1 0.0
27/01:00pm 33.3 33.6 20.8 48 8.4 WNW 20 30 11 16 1005.4 1005.3 0.0
27/12:30pm 32.8 33.3 20.0 47 8.5 WNW 17 22 9 12 1005.7 1005.6 0.0
27/12:00pm 32.4 33.5 19.6 46 8.5 W 13 22 7 12 1006.1 1006.0 0.0
27/11:30am 31.5 31.8 19.5 49 7.9 W 17 24 9 13 1006.5 1006.4 0.0
27/11:00am 30.4 30.5 19.1 50 7.4 WNW 17 22 9 12 1006.8 1006.7 0.0
27/10:30am 30.9 31.3 18.9 48 7.8 WNW 15 20 8 11 1007.0 1006.9 0.0
27/10:00am 30.2 30.4 19.3 52 7.1 WNW 17 22 9 12 1007.2 1007.1 0.0
27/09:30am 30.7 31.8 17.0 43 8.7 WSW 7 13 4 7 1007.3 1007.2 0.0
27/09:00am 30.1 31.2 17.2 46 8.2 SSW 7 13 4 7 1007.7 1007.6 0.0
27/08:30am 29.3 30.2 17.5 49 7.5 SSW 9 15 5 8 1007.6 1007.5 0.0
27/08:00am 27.8 29.5 18.5 57 6.0 WSW 7 11 4 6 1007.6 1007.5 0.0
27/07:30am 27.3 28.5 18.3 58 5.7 WSW 9 13 5 7 1007.2 1007.1 0.0
27/07:00am 26.8 28.1 18.4 60 5.4 WSW 9 13 5 7 1006.9 1006.8 0.0
27/06:30am 26.3 27.7 18.7 63 4.9 WSW 9 13 5 7 1006.6 1006.5 0.0
27/06:00am 26.3 27.8 18.9 63 4.7 W 9 11 5 6 1006.5 1006.4 0.0
27/05:30am 26.2 27.8 18.3 61 5.0 W 7 13 4 7 1006.2 1006.1 0.0
27/05:00am 26.7 27.6 17.5 57 5.8 SW 9 13 5 7 1005.8 1005.7 0.0
27/04:30am 26.9 27.9 17.7 57 5.8 WSW 9 13 5 7 1005.6 1005.5 0.0
27/04:00am 27.1 27.7 17.8 56 5.9 SW 11 15 6 8 1005.3 1005.2 0.0
27/03:30am 27.2 28.1 18.5 59 5.6 SW 11 15 6 8 1005.3 1005.2 0.0
27/03:00am 27.6 28.5 18.3 57 5.9 SSW 11 13 6 7 1005.4 1005.3 0.0
27/02:30am 27.7 28.5 19.0 59 5.6 SW 13 17 7 9 1005.6 1005.5 0.0
27/02:00am 28.0 28.6 18.7 57 6.0 SW 13 17 7 9 1005.7 1005.6 0.0
27/01:30am 28.3 29.1 19.0 57 6.0 SW 13 17 7 9 1005.7 1005.6 0.0
27/01:00am 27.8 29.9 20.1 63 5.1 WSW 9 11 5 6 1006.1 1006.0 0.0
27/12:30am 28.2 29.8 20.0 61 5.4 WSW 11 17 6 9 1006.3 1006.2 0.0
27/12:00am 28.6 30.1 19.8 59 5.8 WSW 11 15 6 8 1006.5 1006.4 0.0
 
Date/Time
WST
Temp
°C
App
Temp
°C
Dew
Point
Rel
Hum
%
Delta-T
°C
Wind Press
QNH
hPa
Press
MSL
hPa
Rain
since 9 am
mm
Dir
 
Spd
km/h
Gust
km/h
Spd
kts
Gust
kts
26/11:30pm 28.9 30.4 19.8 58 6.0 WSW 11 17 6 9 1006.7 1006.6 0.0
26/11:00pm 29.0 30.4 20.4 59 5.7 WSW 13 19 7 10 1006.9 1006.8 0.0
26/10:30pm 29.0 29.7 20.4 59 5.7 WSW 17 22 9 12 1007.0 1006.9 0.0
26/10:00pm 29.0 29.8 20.7 61 5.5 WSW 17 24 9 13 1007.1 1007.0 0.0
26/09:30pm 28.7 29.8 23.1 71 3.8 WSW 22 28 12 15 1006.5 1006.4 0.0
26/09:00pm 28.7 29.8 23.1 71 3.8 WSW 22 32 12 17 1005.9 1005.8 0.0
26/08:30pm 28.9 29.8 23.3 72 3.8 W 24 32 13 17 1005.6 1005.5 0.0
26/08:00pm 29.0 29.4 23.2 71 4.0 W 26 39 14 21 1005.5 1005.4 0.0
26/07:30pm 29.1 29.2 23.3 71 4.0 W 28 35 15 19 1005.2 1005.1 0.0
26/07:00pm 29.3 29.4 23.3 70 4.1 W 28 37 15 20 1004.9 1004.8 0.0

Other Formats:

Comma delimited format used in spreadsheet applications
http://www.bom.gov.au/fwo/IDW60801/IDW60801.94306.axf

JavaScript Object Notation format (JSON) in row-major order
http://www.bom.gov.au/fwo/IDW60801/IDW60801.94306.json